createdAt,value
2023-04-18T00:00:59.105Z,98.74
2023-04-18T00:04:15.174Z,98.68
2023-04-18T00:07:26.302Z,98.75
2023-04-18T00:10:45.462Z,98.37
2023-04-18T00:13:59.625Z,98.41
2023-04-18T00:17:15.549Z,98.52
2023-04-18T00:20:26.285Z,98.59
2023-04-18T00:23:38.188Z,98.31
2023-04-18T00:26:52.035Z,98.50
2023-04-18T00:30:11.809Z,98.43
2023-04-18T00:33:10.487Z,98.39
2023-04-18T00:36:21.282Z,98.27
2023-04-18T00:39:43.075Z,98.35
2023-04-18T00:42:48.725Z,98.23
2023-04-18T00:45:59.507Z,98.26
2023-04-18T00:49:11.536Z,98.36
2023-04-18T00:52:25.016Z,98.17
2023-04-18T00:55:37.583Z,98.14
2023-04-18T00:58:48.305Z,98.04
2023-04-18T01:02:01.123Z,97.89
2023-04-18T01:05:13.676Z,98.00
2023-04-18T01:08:25.937Z,98.00
2023-04-18T01:11:38.664Z,97.68
2023-04-18T01:14:49.494Z,97.23
2023-04-18T01:18:00.339Z,97.37
2023-04-18T01:21:12.731Z,96.97
2023-04-18T01:24:39.776Z,96.93
2023-04-18T01:27:53.848Z,96.74
2023-04-18T01:31:04.593Z,96.83
2023-04-18T01:34:15.577Z,97.10
2023-04-18T01:37:43.892Z,96.81
2023-04-18T01:40:55.768Z,96.85
2023-04-18T01:44:06.624Z,96.76
2023-04-18T01:47:17.340Z,97.11
2023-04-18T01:50:37.118Z,97.06
2023-04-18T01:53:44.148Z,97.04
2023-04-18T01:56:57.861Z,97.32
2023-04-18T02:00:10.559Z,97.51
2023-04-18T02:03:21.724Z,97.66
2023-04-18T02:06:40.944Z,97.33
2023-04-18T02:09:52.007Z,97.37
2023-04-18T02:13:04.810Z,97.43
2023-04-18T02:16:25.016Z,97.67
2023-04-18T02:19:36.759Z,97.50
2023-04-18T02:22:47.904Z,97.40
2023-04-18T02:25:58.666Z,97.29
2023-04-18T02:29:09.380Z,97.18
2023-04-18T02:32:25.774Z,97.12
2023-04-18T02:35:36.589Z,97.19
2023-04-18T02:38:47.380Z,97.12
2023-04-18T02:41:58.090Z,97.42
2023-04-18T02:45:11.285Z,97.47
2023-04-18T02:48:23.610Z,97.41
2023-04-18T02:51:36.257Z,97.51
2023-04-18T02:54:56.447Z,97.72
2023-04-18T02:58:07.336Z,97.67
2023-04-18T03:01:24.572Z,97.53
2023-04-18T03:04:43.739Z,97.67
2023-04-18T03:07:58.665Z,97.83
2023-04-18T03:11:13.120Z,97.71
2023-04-18T03:14:32.160Z,98.06
2023-04-18T03:17:51.257Z,98.02
2023-04-18T03:21:03.849Z,98.09
2023-04-18T03:24:23.579Z,98.16
2023-04-18T03:27:35.343Z,98.23
2023-04-18T03:30:58.058Z,98.25
2023-04-18T03:34:12.148Z,98.32
2023-04-18T03:37:26.825Z,98.27
2023-04-18T03:40:48.858Z,98.51
2023-04-18T03:44:07.968Z,98.01
2023-04-18T03:47:27.983Z,98.22
2023-04-18T03:50:47.632Z,98.23
2023-04-18T03:54:00.245Z,98.09
2023-04-18T03:57:12.686Z,98.10
2023-04-18T04:00:33.714Z,98.29
2023-04-18T04:03:47.521Z,98.09
2023-04-18T04:07:00.334Z,98.02
2023-04-18T04:10:22.872Z,97.89
2023-04-18T04:13:34.576Z,97.79
2023-04-18T04:16:50.131Z,97.65
2023-04-18T04:19:55.526Z,97.55
2023-04-18T04:23:14.337Z,97.63
2023-04-18T04:26:40.656Z,97.50
2023-04-18T04:29:52.901Z,97.35
2023-04-18T04:33:04.921Z,97.25
2023-04-18T04:36:24.033Z,97.36
2023-04-18T04:39:44.642Z,97.06
2023-04-18T04:42:53.878Z,96.69
2023-04-18T04:46:04.724Z,96.89
2023-04-18T04:49:16.560Z,96.70
2023-04-18T04:52:35.747Z,96.39
2023-04-18T04:55:47.628Z,96.55
2023-04-18T04:58:59.524Z,96.74
2023-04-18T05:02:09.986Z,96.70
2023-04-18T05:05:23.888Z,96.59
2023-04-18T05:08:42.956Z,96.38
2023-04-18T05:12:03.158Z,96.27
2023-04-18T05:15:15.818Z,96.36
2023-04-18T05:18:27.570Z,96.00
2023-04-18T05:21:52.314Z,96.44
2023-04-18T05:25:04.550Z,96.17
2023-04-18T05:28:18.295Z,96.11
2023-04-18T05:31:31.675Z,96.11
2023-04-18T05:34:42.853Z,95.78
2023-04-18T05:37:53.718Z,95.89
2023-04-18T05:41:04.706Z,95.79
2023-04-18T05:44:23.895Z,96.01
2023-04-18T05:47:36.323Z,95.14
2023-04-18T05:50:47.295Z,95.74
2023-04-18T05:53:59.103Z,95.43
2023-04-18T05:57:11.412Z,95.41
2023-04-18T06:00:38.841Z,95.20
2023-04-18T06:03:43.737Z,95.26
2023-04-18T06:06:55.150Z,94.78
2023-04-18T06:10:14.441Z,94.28
2023-04-18T06:13:28.646Z,94.07
2023-04-18T06:16:40.181Z,94.16
2023-04-18T06:19:53.330Z,94.55
2023-04-18T06:23:06.248Z,94.31
2023-04-18T06:26:19.286Z,93.68
2023-04-18T06:29:35.600Z,93.38
2023-04-18T06:32:41.884Z,93.32
2023-04-18T06:35:54.427Z,92.73
2023-04-18T06:39:00.151Z,92.30
2023-04-18T06:42:12.947Z,91.92
2023-04-18T06:45:32.033Z,91.38
2023-04-18T06:48:45.077Z,91.34
2023-04-18T06:52:04.157Z,91.64
2023-04-18T06:55:15.933Z,91.01
2023-04-18T06:58:26.760Z,90.75
2023-04-18T07:01:39.753Z,90.35
2023-04-18T07:04:50.909Z,89.91
2023-04-18T07:08:09.702Z,89.74
2023-04-18T07:11:31.674Z,89.14
2023-04-18T07:14:42.762Z,89.00
2023-04-18T07:17:55.175Z,88.71
2023-04-18T07:21:14.319Z,87.91
2023-04-18T07:24:26.413Z,87.60
2023-04-18T07:27:37.165Z,87.47
2023-04-18T07:30:43.543Z,87.07
2023-04-18T07:34:03.642Z,85.53
2023-04-18T07:37:22.665Z,84.55
2023-04-18T07:40:34.857Z,84.43
2023-04-18T07:43:54.620Z,84.17
2023-04-18T07:47:08.524Z,84.41
2023-04-18T07:50:22.382Z,83.39
2023-04-18T07:53:37.318Z,83.09
2023-04-18T07:56:49.442Z,81.84
2023-04-18T07:59:54.010Z,81.07
2023-04-18T08:03:09.867Z,79.08
2023-04-18T08:06:13.420Z,78.37
2023-04-18T08:09:28.665Z,78.93
2023-04-18T08:12:40.245Z,78.96
2023-04-18T08:15:59.565Z,77.89
2023-04-18T08:19:11.344Z,77.55
2023-04-18T08:22:23.295Z,77.48
2023-04-18T08:25:43.701Z,77.58
2023-04-18T08:28:54.480Z,77.43
2023-04-18T08:32:05.482Z,76.52
2023-04-18T08:35:16.268Z,75.61
2023-04-18T08:38:35.746Z,75.70
2023-04-18T08:41:51.072Z,75.09
2023-04-18T08:45:02.894Z,75.22
2023-04-18T08:48:14.782Z,76.08
2023-04-18T08:51:33.907Z,74.93
2023-04-18T08:54:44.680Z,74.18
2023-04-18T08:57:56.027Z,73.55
2023-04-18T09:01:08.915Z,72.93
2023-04-18T09:04:29.216Z,72.31
2023-04-18T09:07:42.665Z,71.70
2023-04-18T09:10:46.885Z,70.67
2023-04-18T09:14:03.242Z,70.68
2023-04-18T09:17:14.606Z,71.17
2023-04-18T09:20:31.467Z,70.27
2023-04-18T09:23:44.328Z,69.80
2023-04-18T09:26:59.024Z,69.44
2023-04-18T09:30:08.506Z,69.28
2023-04-18T09:33:15.984Z,68.47
2023-04-18T09:36:29.791Z,67.55
2023-04-18T09:39:40.507Z,66.81
2023-04-18T09:42:54.524Z,66.09
2023-04-18T09:46:09.863Z,66.76
2023-04-18T09:49:20.623Z,66.34
2023-04-18T09:52:31.317Z,65.30
2023-04-18T09:55:58.824Z,64.43
2023-04-18T09:59:10.576Z,64.82
2023-04-18T10:02:23.239Z,64.72
2023-04-18T10:05:37.889Z,63.45
2023-04-18T10:08:49.718Z,64.34
2023-04-18T10:11:52.148Z,64.28
2023-04-18T10:15:04.214Z,64.00
2023-04-18T10:18:13.075Z,63.46
2023-04-18T10:21:27.509Z,63.27
2023-04-18T10:24:42.520Z,61.57
2023-04-18T10:27:52.683Z,61.07
2023-04-18T10:31:07.288Z,61.81
2023-04-18T10:34:21.598Z,61.28
2023-04-18T10:37:35.502Z,60.14
2023-04-18T10:40:48.295Z,59.85
2023-04-18T10:44:01.026Z,59.36
2023-04-18T10:46:55.598Z,59.73
2023-04-18T10:49:53.065Z,59.74
2023-04-18T10:53:12.772Z,59.72
2023-04-18T10:56:24.966Z,58.79
2023-04-18T10:59:36.716Z,58.19
2023-04-18T11:02:53.331Z,57.85
2023-04-18T11:06:04.818Z,59.05
2023-04-18T11:09:19.729Z,58.72
2023-04-18T11:12:23.447Z,58.67
2023-04-18T11:15:31.033Z,58.54
2023-04-18T11:18:28.407Z,57.43
2023-04-18T11:21:54.578Z,57.28
2023-04-18T11:25:11.065Z,56.03
2023-04-18T11:28:25.819Z,57.33
2023-04-18T11:31:28.211Z,56.55
2023-04-18T11:34:45.326Z,55.08
2023-04-18T11:38:06.005Z,55.74
2023-04-18T11:41:17.760Z,55.46
2023-04-18T11:44:30.536Z,55.15
2023-04-18T11:47:40.481Z,53.84
2023-04-18T11:50:51.347Z,53.31
2023-04-18T11:54:04.364Z,52.65
2023-04-18T11:57:16.456Z,52.80
2023-04-18T12:00:36.537Z,53.51
2023-04-18T12:03:51.867Z,54.27
2023-04-18T12:07:04.818Z,54.72
2023-04-18T12:10:16.030Z,52.66
2023-04-18T12:13:27.746Z,53.09
2023-04-18T12:16:38.699Z,53.36
2023-04-18T12:19:49.896Z,53.39
2023-04-18T12:23:08.396Z,52.41
2023-04-18T12:26:17.178Z,52.52
2023-04-18T12:29:46.436Z,52.85
2023-04-18T12:32:58.090Z,51.66
2023-04-18T12:36:11.579Z,51.92
2023-04-18T12:39:24.756Z,51.21
2023-04-18T12:42:35.732Z,50.71
2023-04-18T12:45:47.425Z,50.11
2023-04-18T12:49:13.577Z,48.15
2023-04-18T12:52:24.265Z,48.10
2023-04-18T12:55:37.591Z,48.40
2023-04-18T12:58:41.155Z,48.28
2023-04-18T13:02:01.331Z,47.99
2023-04-18T13:05:21.179Z,48.34
2023-04-18T13:08:40.338Z,48.88
2023-04-18T13:11:52.503Z,49.15
2023-04-18T13:15:14.785Z,49.83
2023-04-18T13:18:25.503Z,49.90
2023-04-18T13:21:36.306Z,50.08
2023-04-18T13:24:42.581Z,49.72
2023-04-18T13:27:53.360Z,50.42
2023-04-18T13:31:04.076Z,50.26
2023-04-18T13:34:31.526Z,50.83
2023-04-18T13:37:42.254Z,50.97
2023-04-18T13:41:11.522Z,50.48
2023-04-18T13:44:26.723Z,50.82
2023-04-18T13:47:38.629Z,50.83
2023-04-18T13:50:51.235Z,49.82
2023-04-18T13:54:04.742Z,50.22
2023-04-18T13:57:15.460Z,49.21
2023-04-18T14:00:34.525Z,49.35
2023-04-18T14:03:45.317Z,49.71
2023-04-18T14:07:04.696Z,49.02
2023-04-18T14:10:32.182Z,48.97
2023-04-18T14:13:44.959Z,48.67
2023-04-18T14:16:56.211Z,48.77
2023-04-18T14:20:16.067Z,48.61
2023-04-18T14:23:43.682Z,48.77
2023-04-18T14:26:54.664Z,47.77
2023-04-18T14:30:16.222Z,48.19
2023-04-18T14:33:35.551Z,47.87
2023-04-18T14:36:46.585Z,47.73
2023-04-18T14:39:57.723Z,47.55
2023-04-18T14:43:09.032Z,47.62
2023-04-18T14:46:22.438Z,47.16
2023-04-18T14:49:34.328Z,47.53
2023-04-18T14:52:46.459Z,47.33
2023-04-18T14:56:01.223Z,47.21
2023-04-18T14:59:16.696Z,47.15
2023-04-18T15:02:30.530Z,47.00
2023-04-18T15:05:43.607Z,46.45
2023-04-18T15:09:03.523Z,46.42
2023-04-18T15:12:14.480Z,46.61
2023-04-18T15:15:26.627Z,47.13
2023-04-18T15:18:40.575Z,46.78
2023-04-18T15:22:09.186Z,46.62
2023-04-18T15:25:29.324Z,46.74
2023-04-18T15:28:49.475Z,47.14
2023-04-18T15:32:04.270Z,47.85
2023-04-18T15:35:32.249Z,47.60
2023-04-18T15:38:44.996Z,48.28
2023-04-18T15:42:05.125Z,48.78
2023-04-18T15:45:18.265Z,48.97
2023-04-18T15:48:45.836Z,49.34
2023-04-18T15:51:58.005Z,49.44
2023-04-18T15:55:10.120Z,49.80
2023-04-18T15:58:30.611Z,50.77
2023-04-18T16:01:45.665Z,51.22
2023-04-18T16:04:49.491Z,51.48
2023-04-18T16:08:00.868Z,51.49
2023-04-18T16:11:11.660Z,51.53
2023-04-18T16:14:23.977Z,52.01
2023-04-18T16:17:39.126Z,51.99
2023-04-18T16:20:59.819Z,52.44
2023-04-18T16:24:15.422Z,52.07
2023-04-18T16:27:26.273Z,52.64
2023-04-18T16:30:39.739Z,53.13
2023-04-18T16:33:50.485Z,53.33
2023-04-18T16:37:02.367Z,53.63
2023-04-18T16:40:13.357Z,53.82
2023-04-18T16:43:33.919Z,54.24
2023-04-18T16:46:46.901Z,54.47
2023-04-18T16:49:58.814Z,54.79
2023-04-18T16:53:09.605Z,54.89
2023-04-18T16:56:22.171Z,55.61
2023-04-18T16:59:34.735Z,56.11
2023-04-18T17:02:46.548Z,56.53
2023-04-18T17:06:04.182Z,56.57
2023-04-18T17:09:17.968Z,57.18
2023-04-18T17:12:30.910Z,57.42
2023-04-18T17:15:51.348Z,57.72
2023-04-18T17:19:10.436Z,57.93
2023-04-18T17:22:24.801Z,58.20
2023-04-18T17:25:35.523Z,58.45
2023-04-18T17:28:46.399Z,58.79
2023-04-18T17:32:08.287Z,59.28
2023-04-18T17:35:23.350Z,59.27
2023-04-18T17:38:44.567Z,59.64
2023-04-18T17:41:55.288Z,60.43
2023-04-18T17:45:02.687Z,60.95
2023-04-18T17:48:15.076Z,61.47
2023-04-18T17:51:38.918Z,62.05
2023-04-18T17:54:59.158Z,62.58
2023-04-18T17:58:18.296Z,62.75
2023-04-18T18:01:31.146Z,62.92
2023-04-18T18:04:44.984Z,63.35
2023-04-18T18:07:58.198Z,63.87
2023-04-18T18:11:10.210Z,64.54
2023-04-18T18:14:37.798Z,65.00
2023-04-18T18:17:42.512Z,65.67
2023-04-18T18:21:03.074Z,66.06
2023-04-18T18:24:15.444Z,66.39
2023-04-18T18:27:26.489Z,66.83
2023-04-18T18:30:54.124Z,67.50
2023-04-18T18:34:09.405Z,67.98
2023-04-18T18:37:13.612Z,68.20
2023-04-18T18:40:24.336Z,68.00
2023-04-18T18:43:35.381Z,67.70
2023-04-18T18:46:46.240Z,67.20
2023-04-18T18:50:01.116Z,67.11
2023-04-18T18:53:28.933Z,66.91
2023-04-18T18:56:48.071Z,66.60
2023-04-18T19:00:01.316Z,66.73
2023-04-18T19:03:14.402Z,66.87
2023-04-18T19:06:17.464Z,67.29
2023-04-18T19:09:36.703Z,67.47
2023-04-18T19:12:48.919Z,67.81
2023-04-18T19:16:02.329Z,68.07
2023-04-18T19:19:22.958Z,68.37
2023-04-18T19:22:35.179Z,68.68
2023-04-18T19:25:47.428Z,68.97
2023-04-18T19:28:58.301Z,69.23
2023-04-18T19:32:11.294Z,69.46
2023-04-18T19:35:23.729Z,69.88
2023-04-18T19:38:35.885Z,69.99
2023-04-18T19:41:46.622Z,70.60
2023-04-18T19:45:05.748Z,70.84
2023-04-18T19:48:24.916Z,70.85
2023-04-18T19:51:44.611Z,70.75
2023-04-18T19:54:55.771Z,70.94
2023-04-18T19:58:15.813Z,71.03
2023-04-18T20:01:27.798Z,70.84
2023-04-18T20:04:40.876Z,70.84
2023-04-18T20:07:52.899Z,70.66
2023-04-18T20:11:04.634Z,70.58
2023-04-18T20:14:16.640Z,70.44
2023-04-18T20:17:37.394Z,70.18
2023-04-18T20:20:50.314Z,70.11
2023-04-18T20:24:10.730Z,69.97
2023-04-18T20:27:38.210Z,69.67
2023-04-18T20:30:49.264Z,69.56
2023-04-18T20:34:01.656Z,69.56
2023-04-18T20:37:12.513Z,69.54
2023-04-18T20:40:25.476Z,69.39
2023-04-18T20:43:36.318Z,69.27
2023-04-18T20:46:47.146Z,69.28
2023-04-18T20:50:02.447Z,69.02
2023-04-18T20:53:07.071Z,69.28
2023-04-18T20:56:19.560Z,69.35
2023-04-18T20:59:38.673Z,69.17
2023-04-18T21:02:51.429Z,69.24
2023-04-18T21:06:02.449Z,69.09
2023-04-18T21:09:13.630Z,68.81
2023-04-18T21:12:26.683Z,68.96
2023-04-18T21:15:37.743Z,68.85
2023-04-18T21:18:56.930Z,68.74
2023-04-18T21:22:16.098Z,68.99
2023-04-18T21:25:30.075Z,68.76
2023-04-18T21:28:42.849Z,68.59
2023-04-18T21:31:54.059Z,68.84
2023-04-18T21:35:06.930Z,68.96
2023-04-18T21:38:26.198Z,69.33
2023-04-18T21:41:40.943Z,69.73
2023-04-18T21:44:52.395Z,70.15
2023-04-18T21:48:11.806Z,70.69
2023-04-18T21:51:32.200Z,70.94
2023-04-18T21:54:51.517Z,71.63
2023-04-18T21:58:02.527Z,71.93
2023-04-18T22:01:17.587Z,72.73
2023-04-18T22:04:36.825Z,74.19
2023-04-18T22:07:58.471Z,74.29
2023-04-18T22:11:13.385Z,75.36
2023-04-18T22:14:24.174Z,75.28
2023-04-18T22:17:30.684Z,75.60
2023-04-18T22:20:42.997Z,75.90
2023-04-18T22:23:55.475Z,76.61
2023-04-18T22:27:00.393Z,76.56
2023-04-18T22:30:13.104Z,77.19
2023-04-18T22:33:24.871Z,77.39
2023-04-18T22:36:35.638Z,77.88
2023-04-18T22:39:46.370Z,78.05
2023-04-18T22:43:00.526Z,78.26
2023-04-18T22:46:12.751Z,78.57
2023-04-18T22:49:26.522Z,78.96
2023-04-18T22:52:37.278Z,79.47
2023-04-18T22:55:49.095Z,79.59
2023-04-18T22:59:03.254Z,79.63
2023-04-18T23:02:16.753Z,80.10
2023-04-18T23:05:28.664Z,80.10
2023-04-18T23:08:47.862Z,80.41
2023-04-18T23:12:06.045Z,80.60
2023-04-18T23:15:17.421Z,80.62
2023-04-18T23:18:28.538Z,81.00
2023-04-18T23:21:39.369Z,80.97
2023-04-18T23:24:50.411Z,81.14
2023-04-18T23:28:01.365Z,81.47
2023-04-18T23:31:20.647Z,81.26
2023-04-18T23:34:31.494Z,81.51
2023-04-18T23:37:45.808Z,81.69
2023-04-18T23:40:58.740Z,81.38
2023-04-18T23:44:11.043Z,81.41
2023-04-18T23:47:39.096Z,81.53
2023-04-18T23:50:55.470Z,81.57
2023-04-18T23:54:06.364Z,81.45
2023-04-18T23:57:25.581Z,81.53
